createdAt,value
2022-08-18T00:00:46.936Z,26.32
2022-08-18T00:01:47.054Z,26.28
2022-08-18T00:03:00.578Z,26.28
2022-08-18T00:03:56.366Z,26.26
2022-08-18T00:04:49.742Z,26.26
2022-08-18T00:05:46.950Z,26.25
2022-08-18T00:06:46.951Z,26.25
2022-08-18T00:07:47.311Z,26.18
2022-08-18T00:08:46.965Z,26.20
2022-08-18T00:09:46.970Z,26.23
2022-08-18T00:10:46.971Z,26.21
2022-08-18T00:11:46.979Z,26.18
2022-08-18T00:12:46.978Z,26.20
2022-08-18T00:13:46.984Z,26.18
2022-08-18T00:14:46.984Z,26.17
2022-08-18T00:15:49.200Z,26.21
2022-08-18T00:16:46.991Z,26.25
2022-08-18T00:17:46.995Z,26.18
2022-08-18T00:18:47.000Z,26.10
2022-08-18T00:19:48.324Z,26.18
2022-08-18T00:20:47.008Z,26.07
2022-08-18T00:21:47.013Z,26.07
2022-08-18T00:22:47.041Z,26.06
2022-08-18T00:23:47.019Z,26.09
2022-08-18T00:24:47.795Z,26.05
2022-08-18T00:25:47.029Z,26.06
2022-08-18T00:26:47.031Z,26.13
2022-08-18T00:27:47.040Z,26.13
2022-08-18T00:28:47.039Z,26.07
2022-08-18T00:29:47.042Z,26.12
2022-08-18T00:30:47.052Z,26.17
2022-08-18T00:31:47.064Z,26.09
2022-08-18T00:32:47.075Z,26.12
2022-08-18T00:33:47.062Z,26.09
2022-08-18T00:34:47.058Z,26.09
2022-08-18T00:35:47.066Z,26.06
2022-08-18T00:36:47.070Z,26.07
2022-08-18T00:37:47.074Z,26.10
2022-08-18T00:38:47.078Z,26.10
2022-08-18T00:39:48.074Z,26.10
2022-08-18T00:40:47.081Z,26.13
2022-08-18T00:41:47.094Z,26.12
2022-08-18T00:42:47.106Z,26.06
2022-08-18T00:43:47.093Z,26.06
2022-08-18T00:44:47.096Z,26.09
2022-08-18T00:45:47.100Z,26.13
2022-08-18T00:46:47.103Z,26.09
2022-08-18T00:47:47.107Z,26.07
2022-08-18T00:48:48.386Z,26.12
2022-08-18T00:49:47.116Z,26.07
2022-08-18T00:50:47.121Z,26.15
2022-08-18T00:51:47.121Z,26.06
2022-08-18T00:52:47.133Z,25.98
2022-08-18T00:53:47.133Z,25.95
2022-08-18T00:54:47.131Z,25.95
2022-08-18T00:55:53.083Z,25.94
2022-08-18T00:56:47.139Z,25.98
2022-08-18T00:57:47.222Z,25.95
2022-08-18T00:58:47.152Z,25.98
2022-08-18T00:59:47.153Z,25.91
2022-08-18T01:00:47.225Z,25.94
2022-08-18T01:01:47.158Z,25.91
2022-08-18T01:02:47.168Z,25.94
2022-08-18T01:03:47.166Z,25.94
2022-08-18T01:04:47.168Z,26.01
2022-08-18T01:05:47.173Z,25.97
2022-08-18T01:06:47.175Z,25.97
2022-08-18T01:07:47.253Z,25.90
2022-08-18T01:08:47.180Z,25.90
2022-08-18T01:09:47.190Z,25.92
2022-08-18T01:10:47.191Z,25.90
2022-08-18T01:11:47.193Z,25.91
2022-08-18T01:12:47.375Z,25.97
2022-08-18T01:13:47.203Z,25.91
2022-08-18T01:14:47.206Z,25.90
2022-08-18T01:15:47.213Z,25.88
2022-08-18T01:16:56.609Z,25.94
2022-08-18T01:17:47.260Z,25.90
2022-08-18T01:18:47.222Z,25.99
2022-08-18T01:19:47.228Z,25.85
2022-08-18T01:20:47.229Z,25.90
2022-08-18T01:21:47.236Z,25.90
2022-08-18T01:22:47.238Z,25.88
2022-08-18T01:23:47.238Z,25.85
2022-08-18T01:24:47.242Z,25.88
2022-08-18T01:25:47.244Z,25.91
2022-08-18T01:26:47.248Z,25.91
2022-08-18T01:27:47.273Z,25.88
2022-08-18T01:28:47.255Z,25.91
2022-08-18T01:29:47.262Z,25.90
2022-08-18T01:30:47.264Z,25.83
2022-08-18T01:31:54.838Z,25.91
2022-08-18T01:32:47.263Z,25.88
2022-08-18T01:33:47.275Z,25.91
2022-08-18T01:34:47.277Z,25.95
2022-08-18T01:35:47.280Z,25.88
2022-08-18T01:36:47.283Z,25.90
2022-08-18T01:37:47.297Z,25.97
2022-08-18T01:38:47.291Z,25.88
2022-08-18T01:41:24.475Z,25.95
2022-08-18T01:41:27.544Z,25.91
2022-08-18T01:41:47.360Z,25.94
2022-08-18T01:42:47.305Z,25.90
2022-08-18T01:43:47.305Z,25.91
2022-08-18T01:44:47.311Z,25.88
2022-08-18T01:45:47.317Z,25.97
2022-08-18T01:46:47.318Z,25.94
2022-08-18T01:47:48.605Z,25.92
2022-08-18T01:48:47.321Z,25.98
2022-08-18T01:49:47.328Z,25.90
2022-08-18T01:50:47.334Z,25.94
2022-08-18T01:51:47.333Z,25.88
2022-08-18T01:52:47.338Z,25.92
2022-08-18T01:53:47.341Z,25.92
2022-08-18T01:54:47.348Z,25.91
2022-08-18T01:55:47.387Z,25.91
2022-08-18T01:56:47.354Z,25.88
2022-08-18T01:57:47.403Z,25.91
2022-08-18T01:58:47.357Z,25.88
2022-08-18T01:59:47.366Z,25.90
2022-08-18T02:00:47.367Z,25.88
2022-08-18T02:01:50.425Z,25.83
2022-08-18T02:02:47.369Z,25.80
2022-08-18T02:03:47.374Z,25.85
2022-08-18T02:04:47.377Z,25.82
2022-08-18T02:05:47.571Z,25.82
2022-08-18T02:06:47.918Z,25.88
2022-08-18T02:07:47.455Z,25.85
2022-08-18T02:08:49.838Z,25.76
2022-08-18T02:09:47.396Z,25.87
2022-08-18T02:10:47.403Z,25.83
2022-08-18T02:11:47.404Z,25.77
2022-08-18T02:12:47.411Z,25.73
2022-08-18T02:13:47.418Z,25.82
2022-08-18T02:14:47.413Z,25.75
2022-08-18T02:15:47.414Z,25.76
2022-08-18T02:16:47.422Z,25.72
2022-08-18T02:17:47.451Z,25.76
2022-08-18T02:18:48.929Z,25.72
2022-08-18T02:19:47.432Z,25.75
2022-08-18T02:20:47.436Z,25.67
2022-08-18T02:21:47.438Z,25.70
2022-08-18T02:22:47.441Z,25.69
2022-08-18T02:23:52.737Z,25.70
2022-08-18T02:24:47.445Z,25.65
2022-08-18T02:25:47.451Z,25.69
2022-08-18T02:26:47.453Z,25.73
2022-08-18T02:27:47.526Z,25.72
2022-08-18T02:28:47.458Z,25.65
2022-08-18T02:29:47.460Z,25.69
2022-08-18T02:30:47.465Z,25.64
2022-08-18T02:31:47.466Z,25.67
2022-08-18T02:32:47.471Z,25.73
2022-08-18T02:33:51.961Z,25.73
2022-08-18T02:34:47.474Z,25.73
2022-08-18T02:35:47.483Z,25.77
2022-08-18T02:36:47.482Z,25.73
2022-08-18T02:37:47.490Z,25.79
2022-08-18T02:38:54.717Z,25.69
2022-08-18T02:39:47.536Z,25.79
2022-08-18T02:40:47.498Z,25.73
2022-08-18T02:41:47.499Z,25.83
2022-08-18T02:42:47.503Z,25.80
2022-08-18T02:43:47.507Z,25.79
2022-08-18T02:44:47.513Z,25.83
2022-08-18T02:45:47.515Z,25.85
2022-08-18T02:46:47.517Z,25.82
2022-08-18T02:47:47.567Z,25.87
2022-08-18T02:48:47.523Z,25.82
2022-08-18T02:49:47.525Z,25.85
2022-08-18T02:50:47.530Z,25.76
2022-08-18T02:51:47.535Z,25.80
2022-08-18T02:52:47.539Z,25.85
2022-08-18T02:53:47.538Z,25.80
2022-08-18T02:54:47.542Z,25.80
2022-08-18T02:55:47.547Z,25.82
2022-08-18T02:56:47.548Z,25.88
2022-08-18T02:57:47.683Z,25.82
2022-08-18T02:58:47.551Z,25.87
2022-08-18T02:59:47.562Z,25.85
2022-08-18T03:00:47.561Z,25.82
2022-08-18T03:01:47.649Z,25.77
2022-08-18T03:02:47.570Z,25.80
2022-08-18T03:03:47.568Z,25.73
2022-08-18T03:04:47.579Z,25.75
2022-08-18T03:05:47.579Z,25.65
2022-08-18T03:06:47.578Z,25.67
2022-08-18T03:07:47.668Z,25.65
2022-08-18T03:08:47.584Z,25.64
2022-08-18T03:09:47.592Z,25.64
2022-08-18T03:10:47.606Z,25.64
2022-08-18T03:11:47.594Z,25.62
2022-08-18T03:12:47.601Z,25.64
2022-08-18T03:13:47.603Z,25.60
2022-08-18T03:14:47.609Z,25.55
2022-08-18T03:15:47.611Z,25.60
2022-08-18T03:16:54.441Z,25.64
2022-08-18T03:17:47.696Z,25.60
2022-08-18T03:18:47.617Z,25.65
2022-08-18T03:19:47.937Z,25.60
2022-08-18T03:20:47.619Z,25.61
2022-08-18T03:21:47.629Z,25.58
2022-08-18T03:22:47.632Z,25.61
2022-08-18T03:24:00.309Z,25.57
2022-08-18T03:24:47.632Z,25.58
2022-08-18T03:25:47.644Z,25.58
2022-08-18T03:26:47.643Z,25.55
2022-08-18T03:27:47.698Z,25.42
2022-08-18T03:28:47.645Z,25.60
2022-08-18T03:29:47.651Z,25.54
2022-08-18T03:30:47.655Z,25.46
2022-08-18T03:31:47.660Z,25.55
2022-08-18T03:32:47.658Z,25.55
2022-08-18T03:33:47.664Z,25.54
2022-08-18T03:34:47.678Z,25.51
2022-08-18T03:35:47.669Z,25.51
2022-08-18T03:36:47.686Z,25.40
2022-08-18T03:37:47.758Z,25.42
2022-08-18T03:38:47.682Z,25.42
2022-08-18T03:39:47.754Z,25.50
2022-08-18T03:40:47.684Z,25.36
2022-08-18T03:42:00.041Z,25.38
2022-08-18T03:42:47.693Z,25.40
2022-08-18T03:43:50.801Z,25.42
2022-08-18T03:44:47.699Z,25.28
2022-08-18T03:45:47.701Z,25.25
2022-08-18T03:46:47.703Z,25.30
2022-08-18T03:47:47.850Z,25.24
2022-08-18T03:48:47.715Z,25.24
2022-08-18T03:49:47.723Z,25.24
2022-08-18T03:50:47.717Z,25.30
2022-08-18T03:51:47.714Z,25.35
2022-08-18T03:52:47.722Z,25.28
2022-08-18T03:53:47.726Z,25.27
2022-08-18T03:54:47.726Z,25.25
2022-08-18T03:55:47.728Z,25.24
2022-08-18T03:56:47.733Z,25.28
2022-08-18T03:57:47.735Z,25.20
2022-08-18T03:58:47.738Z,25.28
2022-08-18T03:59:47.744Z,25.27
2022-08-18T04:00:47.746Z,25.32
2022-08-18T04:01:47.893Z,25.21
2022-08-18T04:02:47.755Z,25.24
2022-08-18T04:03:47.751Z,25.24
2022-08-18T04:04:47.758Z,25.14
2022-08-18T04:05:47.765Z,25.20
2022-08-18T04:06:47.761Z,25.18
2022-08-18T04:07:47.797Z,25.23
2022-08-18T04:08:47.772Z,25.17
2022-08-18T04:09:47.777Z,25.18
2022-08-18T04:10:47.778Z,25.20
2022-08-18T04:11:47.777Z,25.14
2022-08-18T04:12:47.778Z,25.18
2022-08-18T04:13:47.787Z,25.18
2022-08-18T04:14:48.027Z,25.21
2022-08-18T04:15:47.793Z,25.15
2022-08-18T04:16:47.792Z,25.20
2022-08-18T04:18:03.044Z,25.21
2022-08-18T04:18:47.799Z,25.15
2022-08-18T04:19:47.801Z,25.14
2022-08-18T04:20:56.228Z,25.10
2022-08-18T04:21:47.808Z,25.28
2022-08-18T04:22:47.817Z,25.23
2022-08-18T04:23:47.815Z,25.21
2022-08-18T04:24:47.817Z,25.25
2022-08-18T04:25:47.819Z,25.20
2022-08-18T04:26:47.824Z,25.18
2022-08-18T04:27:47.842Z,25.24
2022-08-18T04:28:47.829Z,25.25
2022-08-18T04:29:47.836Z,25.17
2022-08-18T04:30:47.832Z,25.18
2022-08-18T04:31:47.837Z,25.24
2022-08-18T04:32:47.841Z,25.17
2022-08-18T04:33:47.840Z,25.17
2022-08-18T04:34:47.848Z,25.24
2022-08-18T04:35:47.852Z,25.20
2022-08-18T04:36:47.853Z,25.25
2022-08-18T04:37:47.857Z,25.23
2022-08-18T04:38:47.857Z,25.23
2022-08-18T04:39:47.906Z,25.17
2022-08-18T04:40:47.865Z,25.24
2022-08-18T04:41:47.868Z,25.30
2022-08-18T04:42:47.871Z,25.23
2022-08-18T04:43:47.871Z,25.24
2022-08-18T04:44:47.871Z,25.23
2022-08-18T04:45:47.877Z,25.21
2022-08-18T04:46:47.891Z,25.30
2022-08-18T04:47:47.912Z,25.25
2022-08-18T04:48:47.886Z,25.28
2022-08-18T04:49:47.887Z,25.30
2022-08-18T04:50:47.899Z,25.25
2022-08-18T04:52:36.965Z,25.32
2022-08-18T04:52:47.898Z,25.42
2022-08-18T04:53:47.954Z,25.39
2022-08-18T04:54:47.904Z,25.45
2022-08-18T04:55:47.908Z,25.36
2022-08-18T04:56:47.908Z,25.32
2022-08-18T04:57:47.986Z,25.35
2022-08-18T04:58:47.915Z,25.50
2022-08-18T04:59:47.918Z,25.45
2022-08-18T05:00:47.981Z,25.45
2022-08-18T05:01:48.353Z,25.55
2022-08-18T05:02:47.928Z,25.50
2022-08-18T05:03:50.295Z,25.55
2022-08-18T05:04:47.935Z,25.43
2022-08-18T05:05:47.940Z,25.46
2022-08-18T05:06:47.940Z,25.60
2022-08-18T05:07:48.040Z,25.58
2022-08-18T05:08:47.948Z,25.57
2022-08-18T05:09:47.952Z,25.58
2022-08-18T05:10:47.956Z,25.61
2022-08-18T05:11:47.954Z,25.61
2022-08-18T05:12:47.959Z,25.70
2022-08-18T05:13:47.959Z,25.72
2022-08-18T05:14:47.968Z,25.72
2022-08-18T05:16:09.467Z,25.79
2022-08-18T05:16:49.698Z,25.76
2022-08-18T05:17:50.339Z,25.75
2022-08-18T05:18:47.974Z,25.85
2022-08-18T05:19:48.484Z,25.88
2022-08-18T05:20:47.984Z,25.94
2022-08-18T05:21:50.632Z,25.87
2022-08-18T05:22:47.985Z,25.94
2022-08-18T05:23:47.990Z,25.95
2022-08-18T05:24:47.997Z,25.99
2022-08-18T05:25:47.999Z,26.05
2022-08-18T05:26:48.002Z,26.06
2022-08-18T05:27:48.058Z,26.15
2022-08-18T05:28:48.012Z,26.15
2022-08-18T05:29:51.436Z,26.23
2022-08-18T05:30:48.022Z,26.26
2022-08-18T05:31:48.177Z,26.32
2022-08-18T05:32:50.337Z,26.25
2022-08-18T05:33:48.025Z,26.30
2022-08-18T05:34:48.024Z,26.33
2022-08-18T05:35:48.036Z,26.33
2022-08-18T05:36:48.030Z,26.35
2022-08-18T05:37:48.207Z,26.44
2022-08-18T05:38:48.048Z,26.44
2022-08-18T05:39:48.081Z,26.36
2022-08-18T05:40:48.045Z,26.48
2022-08-18T05:41:48.046Z,26.54
2022-08-18T05:42:48.054Z,26.51
2022-08-18T05:43:51.965Z,26.44
2022-08-18T05:44:48.064Z,26.55
2022-08-18T05:45:48.061Z,26.62
2022-08-18T05:46:48.068Z,26.58
2022-08-18T05:47:48.092Z,26.65
2022-08-18T05:48:48.076Z,26.65
2022-08-18T05:49:48.080Z,26.66
2022-08-18T05:50:48.084Z,26.72
2022-08-18T05:51:48.082Z,26.69
2022-08-18T05:52:48.085Z,26.70
2022-08-18T05:53:48.089Z,26.80
2022-08-18T05:54:48.095Z,26.77
2022-08-18T05:55:48.264Z,26.80
2022-08-18T05:56:48.136Z,26.77
2022-08-18T05:57:48.171Z,26.84
2022-08-18T05:58:48.106Z,26.77
2022-08-18T05:59:48.186Z,26.91
2022-08-18T06:00:48.116Z,26.91
2022-08-18T06:01:48.117Z,26.92
2022-08-18T06:02:48.221Z,26.87
2022-08-18T06:03:48.122Z,26.92
2022-08-18T06:04:48.126Z,26.99
2022-08-18T06:05:48.134Z,27.09
2022-08-18T06:06:48.223Z,27.10
2022-08-18T06:07:48.140Z,27.04
2022-08-18T06:08:48.149Z,27.09
2022-08-18T06:09:48.149Z,27.14
2022-08-18T06:10:48.151Z,27.14
2022-08-18T06:11:48.147Z,27.28
2022-08-18T06:12:48.157Z,27.39
2022-08-18T06:13:48.156Z,27.25
2022-08-18T06:14:48.170Z,27.34
2022-08-18T06:15:48.163Z,27.43
2022-08-18T06:16:48.169Z,27.44
2022-08-18T06:17:48.310Z,27.51
2022-08-18T06:18:48.175Z,27.57
2022-08-18T06:19:48.177Z,27.51
2022-08-18T06:20:48.185Z,27.59
2022-08-18T06:21:48.183Z,27.60
2022-08-18T06:22:52.557Z,27.63
2022-08-18T06:23:48.195Z,27.63
2022-08-18T06:24:48.205Z,27.69
2022-08-18T06:25:48.204Z,27.78
2022-08-18T06:26:48.211Z,27.77
2022-08-18T06:27:48.305Z,27.85
2022-08-18T06:28:48.220Z,27.92
2022-08-18T06:29:48.224Z,27.94
2022-08-18T06:30:48.222Z,27.94
2022-08-18T06:31:48.227Z,28.02
2022-08-18T06:32:48.230Z,28.03
2022-08-18T06:33:48.239Z,28.09
2022-08-18T06:34:48.239Z,28.15
2022-08-18T06:35:48.504Z,28.22
2022-08-18T06:36:48.248Z,28.27
2022-08-18T06:37:48.342Z,28.31
2022-08-18T06:38:48.257Z,28.33
2022-08-18T06:39:48.364Z,28.48
2022-08-18T06:40:48.266Z,28.44
2022-08-18T06:41:48.266Z,28.55
2022-08-18T06:42:48.271Z,28.56
2022-08-18T06:43:48.277Z,28.58
2022-08-18T06:44:48.279Z,28.71
2022-08-18T06:45:48.278Z,28.73
2022-08-18T06:46:48.284Z,28.78
2022-08-18T06:47:48.355Z,28.88
2022-08-18T06:48:48.298Z,28.90
2022-08-18T06:49:48.299Z,28.89
2022-08-18T06:50:48.308Z,28.93
2022-08-18T06:51:48.306Z,28.95
2022-08-18T06:52:48.316Z,29.04
2022-08-18T06:53:48.318Z,29.11
2022-08-18T06:54:51.251Z,29.06
2022-08-18T06:55:48.327Z,29.14
2022-08-18T06:56:48.339Z,29.21
2022-08-18T06:57:48.366Z,29.21
2022-08-18T06:58:52.687Z,29.31
2022-08-18T06:59:48.347Z,29.31
2022-08-18T07:00:49.162Z,29.26
2022-08-18T07:01:48.356Z,29.21
2022-08-18T07:02:48.365Z,29.30
2022-08-18T07:03:48.363Z,29.37
2022-08-18T07:04:48.378Z,29.55
2022-08-18T07:05:48.375Z,29.55
2022-08-18T07:06:48.381Z,29.70
2022-08-18T07:07:48.384Z,29.80
2022-08-18T07:08:48.388Z,29.74
2022-08-18T07:09:48.393Z,29.94
2022-08-18T07:10:48.412Z,29.92
2022-08-18T07:11:48.406Z,29.92
2022-08-18T07:12:48.412Z,29.97
2022-08-18T07:13:58.623Z,29.98
2022-08-18T07:14:48.426Z,29.92
2022-08-18T07:15:48.423Z,29.95
2022-08-18T07:16:59.024Z,29.90
2022-08-18T07:17:48.433Z,30.10
2022-08-18T07:18:48.441Z,30.08
2022-08-18T07:19:48.448Z,30.22
2022-08-18T07:20:48.451Z,30.24
2022-08-18T07:21:48.458Z,30.38
2022-08-18T07:22:48.462Z,30.57
2022-08-18T07:24:07.705Z,30.67
2022-08-18T07:24:48.474Z,30.82
2022-08-18T07:25:48.481Z,30.95
2022-08-18T07:26:48.489Z,31.17
2022-08-18T07:27:48.555Z,31.50
2022-08-18T07:28:48.499Z,31.69
2022-08-18T07:29:48.518Z,31.89
2022-08-18T07:31:13.615Z,32.04
2022-08-18T07:31:48.513Z,31.92
2022-08-18T07:32:48.519Z,32.01
2022-08-18T07:33:48.525Z,31.96
2022-08-18T07:34:48.538Z,31.95
2022-08-18T07:35:48.534Z,32.03
2022-08-18T07:36:48.547Z,32.00
2022-08-18T07:37:48.648Z,32.01
2022-08-18T07:38:48.556Z,32.08
2022-08-18T07:39:48.744Z,32.06
2022-08-18T07:40:48.576Z,32.04
2022-08-18T07:41:48.571Z,32.06
2022-08-18T07:42:54.034Z,32.04
2022-08-18T07:43:48.586Z,32.06
2022-08-18T07:44:48.596Z,32.00
2022-08-18T07:45:48.598Z,31.99
2022-08-18T07:46:48.605Z,31.80
2022-08-18T07:47:48.724Z,31.81
2022-08-18T07:48:48.622Z,31.80
2022-08-18T07:50:15.818Z,31.85
2022-08-18T07:50:58.651Z,31.73
2022-08-18T07:51:53.280Z,31.63
2022-08-18T07:52:48.657Z,31.61
2022-08-18T07:53:54.488Z,31.54
2022-08-18T07:54:50.138Z,31.68
2022-08-18T07:55:48.668Z,31.61
2022-08-18T07:56:48.680Z,31.63
2022-08-18T07:57:48.682Z,31.61
2022-08-18T07:58:48.695Z,31.61
2022-08-18T07:59:48.697Z,31.61
2022-08-18T08:00:58.735Z,31.63
2022-08-18T08:01:48.761Z,31.57
2022-08-18T08:02:50.053Z,31.68
2022-08-18T08:03:48.725Z,31.65
2022-08-18T08:04:48.732Z,31.63
2022-08-18T08:05:48.738Z,31.57
2022-08-18T08:07:12.839Z,31.58
2022-08-18T08:07:48.750Z,31.63
2022-08-18T08:08:48.756Z,31.66
2022-08-18T08:09:51.874Z,31.70
2022-08-18T08:10:48.775Z,31.76
2022-08-18T08:11:48.780Z,31.81
2022-08-18T08:12:48.790Z,31.95
2022-08-18T08:13:55.842Z,31.96
2022-08-18T08:14:48.806Z,32.01
2022-08-18T08:15:48.807Z,31.93
2022-08-18T08:16:48.820Z,32.00
2022-08-18T08:17:48.967Z,32.01
2022-08-18T08:18:48.829Z,32.07
2022-08-18T08:20:02.740Z,32.10
2022-08-18T08:20:48.843Z,32.14
2022-08-18T08:21:52.917Z,32.07
2022-08-18T08:22:48.865Z,32.11
2022-08-18T08:23:48.863Z,32.14
2022-08-18T08:24:48.872Z,32.11
2022-08-18T08:25:48.880Z,32.32
2022-08-18T08:26:48.889Z,32.28
2022-08-18T08:27:48.893Z,32.43
2022-08-18T08:28:53.699Z,32.43
2022-08-18T08:29:48.909Z,32.48
2022-08-18T08:30:48.919Z,32.56
2022-08-18T08:31:48.923Z,32.67
2022-08-18T08:32:48.930Z,32.77
2022-08-18T08:33:48.941Z,32.82
2022-08-18T08:34:48.951Z,32.88
2022-08-18T08:35:50.647Z,32.92
2022-08-18T08:36:48.962Z,33.00
2022-08-18T08:37:48.970Z,33.06
2022-08-18T08:38:48.984Z,33.06
2022-08-18T08:39:49.078Z,33.15
2022-08-18T08:40:48.998Z,33.21
2022-08-18T08:41:48.999Z,33.28
2022-08-18T08:42:49.011Z,33.42
2022-08-18T08:43:49.014Z,33.47
2022-08-18T08:44:58.887Z,33.61
2022-08-18T08:45:49.027Z,33.60
2022-08-18T08:46:49.042Z,33.75
2022-08-18T08:47:49.044Z,33.90
2022-08-18T08:48:49.052Z,34.10
2022-08-18T08:49:54.792Z,34.32
2022-08-18T08:50:49.081Z,34.53
2022-08-18T08:51:49.088Z,34.87
2022-08-18T08:52:49.090Z,34.91
2022-08-18T08:53:49.099Z,35.22
2022-08-18T08:54:49.106Z,35.55
2022-08-18T08:55:49.112Z,35.77
2022-08-18T08:56:49.124Z,36.01
2022-08-18T08:57:49.132Z,36.28
2022-08-18T08:58:49.145Z,36.62
2022-08-18T08:59:49.155Z,36.83
2022-08-18T09:00:49.159Z,36.93
2022-08-18T09:01:49.220Z,37.03
2022-08-18T09:02:49.289Z,37.22
2022-08-18T09:03:49.190Z,37.36
2022-08-18T09:04:54.798Z,37.60
2022-08-18T09:05:53.420Z,37.84
2022-08-18T09:06:49.218Z,37.88
2022-08-18T09:07:49.239Z,38.07
2022-08-18T09:08:49.246Z,38.09
2022-08-18T09:09:49.259Z,38.26
2022-08-18T09:10:49.268Z,38.52
2022-08-18T09:11:49.282Z,38.68
2022-08-18T09:12:49.304Z,38.91
2022-08-18T09:13:49.304Z,38.99
2022-08-18T09:14:49.324Z,39.11
2022-08-18T09:15:49.330Z,39.36
2022-08-18T09:16:49.352Z,39.44
2022-08-18T09:17:49.358Z,39.51
2022-08-18T09:18:49.373Z,39.47
2022-08-18T09:19:49.381Z,39.54
2022-08-18T09:20:49.718Z,39.59
2022-08-18T09:21:49.406Z,39.62
2022-08-18T09:22:49.418Z,39.70
2022-08-18T09:23:49.434Z,39.67
2022-08-18T09:24:51.094Z,39.73
2022-08-18T09:25:49.457Z,40.00
2022-08-18T09:26:49.476Z,40.16
2022-08-18T09:28:10.011Z,40.41
2022-08-18T09:28:49.520Z,40.58
2022-08-18T09:29:49.522Z,40.84
2022-08-18T09:30:51.470Z,41.01
2022-08-18T09:31:49.546Z,41.11
2022-08-18T09:32:49.598Z,40.99
2022-08-18T09:33:49.576Z,41.14
2022-08-18T09:34:49.587Z,41.18
2022-08-18T09:36:49.620Z,41.73
2022-08-18T09:37:50.372Z,41.98
2022-08-18T09:38:49.652Z,42.35
2022-08-18T09:39:54.380Z,42.77
2022-08-18T09:41:02.499Z,43.14
2022-08-18T09:41:49.767Z,43.42
2022-08-18T09:42:50.564Z,43.79
2022-08-18T09:43:49.729Z,44.13
2022-08-18T09:44:49.745Z,44.48
2022-08-18T09:45:49.758Z,44.62
2022-08-18T09:46:49.778Z,44.98
2022-08-18T09:47:49.792Z,45.05
2022-08-18T09:48:49.810Z,45.20
2022-08-18T09:49:51.261Z,45.42
2022-08-18T09:50:49.839Z,45.38
2022-08-18T09:51:49.862Z,45.42
2022-08-18T09:52:50.055Z,45.26
2022-08-18T09:53:49.901Z,45.10
2022-08-18T09:54:49.912Z,45.20
2022-08-18T09:55:52.027Z,45.16
2022-08-18T09:57:49.976Z,45.21
2022-08-18T09:58:50.121Z,45.47
2022-08-18T09:59:50.005Z,45.54
2022-08-18T10:00:50.036Z,45.50
2022-08-18T10:02:50.059Z,45.50
2022-08-18T10:03:50.082Z,45.54
2022-08-18T10:04:50.101Z,45.70
2022-08-18T10:05:50.117Z,45.84
2022-08-18T10:07:50.193Z,46.34
2022-08-18T10:08:50.180Z,46.45
2022-08-18T10:09:50.205Z,46.69
2022-08-18T10:11:01.371Z,46.86
2022-08-18T10:11:50.894Z,47.07
2022-08-18T10:12:50.477Z,47.50
2022-08-18T10:13:50.281Z,47.99
2022-08-18T10:14:50.299Z,48.21
2022-08-18T10:15:50.322Z,48.29
2022-08-18T10:17:15.969Z,48.20
2022-08-18T10:17:50.433Z,48.16
2022-08-18T10:18:50.388Z,48.09
2022-08-18T10:19:50.407Z,48.21
2022-08-18T10:20:50.432Z,48.14
2022-08-18T10:21:50.453Z,48.20
2022-08-18T10:22:50.560Z,48.23
2022-08-18T10:23:58.430Z,48.07
2022-08-18T10:24:50.520Z,47.97
2022-08-18T10:25:50.546Z,48.07
2022-08-18T10:26:54.941Z,48.39
2022-08-18T10:27:50.589Z,48.86
2022-08-18T10:28:51.851Z,49.25
2022-08-18T10:29:50.627Z,49.59
2022-08-18T10:30:57.510Z,49.65
2022-08-18T10:31:50.679Z,50.01
2022-08-18T10:32:52.209Z,50.20
2022-08-18T10:33:50.725Z,50.59
2022-08-18T10:34:52.335Z,50.86
2022-08-18T10:35:50.774Z,51.21
2022-08-18T10:36:50.798Z,51.19
2022-08-18T10:37:50.910Z,51.08
2022-08-18T10:38:50.849Z,51.14
2022-08-18T10:39:50.901Z,50.76
2022-08-18T10:40:50.893Z,50.83
2022-08-18T10:41:51.303Z,51.11
2022-08-18T10:42:53.420Z,51.00
2022-08-18T10:43:58.181Z,50.70
2022-08-18T10:44:50.995Z,50.61
2022-08-18T10:46:24.409Z,50.54
2022-08-18T10:46:51.056Z,50.44
2022-08-18T10:47:51.075Z,50.81
2022-08-18T10:48:51.098Z,51.00
2022-08-18T10:49:51.123Z,50.95
2022-08-18T10:50:51.157Z,50.82
2022-08-18T10:51:59.128Z,50.78
2022-08-18T10:52:51.412Z,50.57
2022-08-18T10:53:51.440Z,50.54
2022-08-18T10:54:54.604Z,50.50
2022-08-18T10:55:51.542Z,50.50
2022-08-18T10:56:51.308Z,50.63
2022-08-18T10:57:51.348Z,50.93
2022-08-18T10:58:51.363Z,51.08
2022-08-18T10:59:54.642Z,51.19
2022-08-18T11:00:51.417Z,51.14
2022-08-18T11:01:51.444Z,51.00
2022-08-18T11:02:52.291Z,50.88
2022-08-18T11:03:55.706Z,50.93
2022-08-18T11:04:58.840Z,51.01
2022-08-18T11:05:51.549Z,50.83
2022-08-18T11:06:51.573Z,50.69
2022-08-18T11:07:52.091Z,50.89
2022-08-18T11:08:55.382Z,50.73
2022-08-18T11:10:04.387Z,50.59
2022-08-18T11:11:32.474Z,50.78
2022-08-18T11:11:52.529Z,50.93
2022-08-18T11:12:51.748Z,51.33
2022-08-18T11:13:51.767Z,51.28
2022-08-18T11:14:51.798Z,51.12
2022-08-18T11:15:51.820Z,50.92
2022-08-18T11:16:53.901Z,50.70
2022-08-18T11:17:51.876Z,50.73
2022-08-18T11:19:51.930Z,50.59
2022-08-18T11:20:51.957Z,50.57
2022-08-18T11:21:52.109Z,50.48
2022-08-18T11:22:52.338Z,50.55
2022-08-18T11:23:52.039Z,50.81
2022-08-18T11:24:52.073Z,50.54
2022-08-18T11:25:52.102Z,50.44
2022-08-18T11:26:53.020Z,50.42
2022-08-18T11:27:52.154Z,50.25
2022-08-18T11:28:52.180Z,50.25
2022-08-18T11:29:52.201Z,50.44
2022-08-18T11:30:52.240Z,50.66
2022-08-18T11:31:52.801Z,50.85
2022-08-18T11:32:53.441Z,51.23
2022-08-18T11:33:52.319Z,51.34
2022-08-18T11:34:53.208Z,51.14
2022-08-18T11:35:52.377Z,50.97
2022-08-18T11:36:52.404Z,51.12
2022-08-18T11:37:53.668Z,51.26
2022-08-18T11:38:52.462Z,51.31
2022-08-18T11:39:52.559Z,51.58
2022-08-18T11:41:09.037Z,51.08
2022-08-18T11:41:52.662Z,50.52
2022-08-18T11:42:53.003Z,50.23
2022-08-18T11:43:52.602Z,50.10
2022-08-18T11:44:52.630Z,50.04
2022-08-18T11:45:52.661Z,49.70
2022-08-18T11:46:52.686Z,49.48
2022-08-18T11:47:52.721Z,49.58
2022-08-18T11:48:53.465Z,49.27
2022-08-18T11:49:53.668Z,48.88
2022-08-18T11:51:52.827Z,48.57
2022-08-18T11:52:53.868Z,48.32
2022-08-18T11:53:58.220Z,47.92
2022-08-18T11:54:54.135Z,47.38
2022-08-18T11:56:52.955Z,46.61
2022-08-18T11:57:52.986Z,46.23
2022-08-18T11:58:53.009Z,46.09
2022-08-18T12:00:00.537Z,45.43
2022-08-18T12:00:53.066Z,44.95
2022-08-18T12:01:53.087Z,44.36
2022-08-18T12:02:53.263Z,43.59
2022-08-18T12:03:53.141Z,43.35
2022-08-18T12:04:53.488Z,43.10
2022-08-18T12:05:54.159Z,42.96
2022-08-18T12:06:53.216Z,42.78
2022-08-18T12:07:57.709Z,42.84
2022-08-18T12:08:58.952Z,42.83
2022-08-18T12:10:16.686Z,42.78
2022-08-18T12:10:53.311Z,42.81
2022-08-18T12:11:53.330Z,42.87
2022-08-18T12:12:53.693Z,42.68
2022-08-18T12:13:53.385Z,42.49
2022-08-18T12:14:57.243Z,42.30
2022-08-18T12:15:53.431Z,42.27
2022-08-18T12:16:54.098Z,42.23
2022-08-18T12:17:54.047Z,42.08
2022-08-18T12:18:53.732Z,41.90
2022-08-18T12:19:53.521Z,42.06
2022-08-18T12:20:53.541Z,42.23
2022-08-18T12:21:53.567Z,42.62
2022-08-18T12:22:53.723Z,42.86
2022-08-18T12:23:53.607Z,43.03
2022-08-18T12:24:53.629Z,43.42
2022-08-18T12:25:53.655Z,43.66
2022-08-18T12:26:53.671Z,44.10
2022-08-18T12:27:53.702Z,44.46
2022-08-18T12:28:53.719Z,44.50
2022-08-18T12:29:53.742Z,44.60
2022-08-18T12:30:56.068Z,44.60
2022-08-18T12:31:53.782Z,44.70
2022-08-18T12:32:54.775Z,44.76
2022-08-18T12:34:00.200Z,44.66
2022-08-18T12:34:53.845Z,44.37
2022-08-18T12:35:53.867Z,44.09
2022-08-18T12:36:53.888Z,43.87
2022-08-18T12:37:59.706Z,43.68
2022-08-18T12:38:56.162Z,43.64
2022-08-18T12:39:54.067Z,43.57
2022-08-18T12:40:53.977Z,43.57
2022-08-18T12:41:53.996Z,43.57
2022-08-18T12:42:55.949Z,43.45
2022-08-18T12:43:58.974Z,43.41
2022-08-18T12:44:54.060Z,43.33
2022-08-18T12:45:54.075Z,43.28
2022-08-18T12:46:54.097Z,43.17
2022-08-18T12:47:54.117Z,42.99
2022-08-18T12:48:54.266Z,42.99
2022-08-18T12:49:54.188Z,42.96
2022-08-18T12:50:59.644Z,42.95
2022-08-18T12:51:54.198Z,43.14
2022-08-18T12:52:54.616Z,43.17
2022-08-18T12:53:58.527Z,43.19
2022-08-18T12:54:55.812Z,43.30
2022-08-18T12:55:54.271Z,43.25
2022-08-18T12:56:54.289Z,43.14
2022-08-18T12:57:54.312Z,43.15
2022-08-18T12:58:54.335Z,42.95
2022-08-18T12:59:54.351Z,42.73